createdAt,value
2022-10-06T00:01:16.637Z,10.96
2022-10-06T00:03:45.721Z,10.96
2022-10-06T00:06:15.175Z,10.88
2022-10-06T00:08:44.958Z,10.79
2022-10-06T00:11:14.132Z,10.75
2022-10-06T00:13:42.521Z,10.71
2022-10-06T00:16:14.520Z,10.56
2022-10-06T00:18:42.679Z,10.51
2022-10-06T00:21:11.087Z,10.47
2022-10-06T00:23:39.055Z,10.44
2022-10-06T00:26:11.648Z,10.36
2022-10-06T00:28:40.129Z,10.30
2022-10-06T00:31:08.236Z,10.31
2022-10-06T00:33:38.473Z,10.24
2022-10-06T00:36:08.150Z,10.21
2022-10-06T00:38:36.594Z,10.17
2022-10-06T00:41:04.653Z,10.12
2022-10-06T00:43:49.770Z,10.07
2022-10-06T00:46:23.735Z,10.12
2022-10-06T00:48:57.526Z,10.01
2022-10-06T00:51:25.826Z,9.98
2022-10-06T00:53:54.608Z,9.91
2022-10-06T00:56:22.818Z,9.86
2022-10-06T00:58:51.239Z,9.83
2022-10-06T01:01:19.241Z,9.77
2022-10-06T01:03:51.869Z,9.71
2022-10-06T01:06:21.312Z,9.67
2022-10-06T01:08:50.098Z,9.67
2022-10-06T01:11:18.106Z,9.65
2022-10-06T01:13:47.594Z,9.63
2022-10-06T01:16:21.200Z,9.60
2022-10-06T01:18:50.034Z,9.59
2022-10-06T01:21:28.536Z,9.52
2022-10-06T01:23:58.518Z,9.46
2022-10-06T01:26:28.430Z,9.36
2022-10-06T01:28:56.890Z,9.29
2022-10-06T01:31:25.996Z,9.20
2022-10-06T01:33:54.679Z,9.20
2022-10-06T01:36:23.036Z,9.21
2022-10-06T01:38:51.008Z,9.11
2022-10-06T01:41:21.805Z,9.02
2022-10-06T01:43:49.961Z,8.99
2022-10-06T01:46:18.099Z,8.88
2022-10-06T01:48:46.073Z,8.89
2022-10-06T01:51:16.130Z,8.80
2022-10-06T01:53:44.396Z,8.76
2022-10-06T01:56:13.075Z,8.82
2022-10-06T01:58:42.472Z,8.74
2022-10-06T02:01:11.240Z,8.78
2022-10-06T02:03:40.604Z,8.77
2022-10-06T02:06:09.523Z,8.77
2022-10-06T02:08:37.799Z,8.88
2022-10-06T02:11:09.189Z,8.79
2022-10-06T02:13:37.884Z,8.76
2022-10-06T02:16:08.311Z,8.73
2022-10-06T02:18:37.159Z,8.65
2022-10-06T02:21:05.434Z,8.60
2022-10-06T02:23:34.300Z,8.56
2022-10-06T02:26:04.981Z,8.51
2022-10-06T02:28:33.654Z,8.47
2022-10-06T02:31:03.453Z,8.46
2022-10-06T02:33:33.100Z,8.45
2022-10-06T02:36:01.339Z,8.45
2022-10-06T02:38:30.533Z,8.44
2022-10-06T02:40:59.697Z,8.42
2022-10-06T02:43:28.994Z,8.42
2022-10-06T02:45:58.050Z,8.49
2022-10-06T02:48:27.002Z,8.49
2022-10-06T02:50:58.741Z,8.48
2022-10-06T02:53:27.301Z,8.51
2022-10-06T02:56:00.735Z,8.45
2022-10-06T02:58:31.103Z,8.52
2022-10-06T03:01:03.496Z,8.54
2022-10-06T03:03:31.992Z,8.55
2022-10-06T03:06:06.290Z,8.48
2022-10-06T03:08:34.884Z,8.48
2022-10-06T03:11:07.210Z,8.51
2022-10-06T03:13:35.351Z,8.43
2022-10-06T03:16:03.439Z,8.51
2022-10-06T03:18:31.985Z,8.39
2022-10-06T03:21:02.167Z,8.30
2022-10-06T03:23:31.529Z,8.24
2022-10-06T03:25:59.664Z,8.24
2022-10-06T03:28:28.751Z,8.25
2022-10-06T03:31:03.887Z,8.30
2022-10-06T03:33:32.240Z,8.25
2022-10-06T03:36:05.639Z,8.26
2022-10-06T03:38:36.644Z,8.36
2022-10-06T03:41:06.918Z,8.34
2022-10-06T03:43:35.581Z,8.37
2022-10-06T03:46:04.595Z,8.35
2022-10-06T03:48:35.141Z,8.37
2022-10-06T03:51:05.703Z,8.38
2022-10-06T03:53:36.305Z,8.46
2022-10-06T03:56:07.502Z,8.42
2022-10-06T03:58:38.199Z,8.36
2022-10-06T04:01:08.270Z,8.33
2022-10-06T04:03:36.609Z,8.31
2022-10-06T04:06:07.211Z,8.33
2022-10-06T04:08:36.948Z,8.37
2022-10-06T04:11:08.778Z,8.43
2022-10-06T04:13:37.012Z,8.40
2022-10-06T04:16:16.720Z,8.36
2022-10-06T04:18:46.134Z,8.27
2022-10-06T04:21:14.674Z,8.20
2022-10-06T04:23:44.142Z,8.12
2022-10-06T04:26:14.235Z,8.18
2022-10-06T04:28:44.365Z,8.16
2022-10-06T04:31:17.951Z,8.11
2022-10-06T04:33:47.392Z,8.05
2022-10-06T04:36:17.947Z,8.16
2022-10-06T04:38:47.322Z,8.22
2022-10-06T04:41:16.803Z,8.17
2022-10-06T04:43:46.444Z,8.20
2022-10-06T04:46:40.988Z,8.18
2022-10-06T04:49:03.775Z,8.19
2022-10-06T04:51:31.921Z,8.20
2022-10-06T04:54:02.677Z,8.29
2022-10-06T04:56:32.591Z,8.35
2022-10-06T04:59:00.759Z,8.41
2022-10-06T05:01:30.930Z,8.43
2022-10-06T05:04:01.032Z,8.52
2022-10-06T05:06:30.703Z,8.58
2022-10-06T05:09:00.811Z,8.55
2022-10-06T05:11:31.933Z,8.56
2022-10-06T05:14:00.469Z,8.63
2022-10-06T05:16:30.655Z,8.67
2022-10-06T05:18:58.833Z,8.73
2022-10-06T05:21:28.463Z,8.76
2022-10-06T05:23:56.434Z,8.83
2022-10-06T05:26:26.056Z,8.93
2022-10-06T05:28:56.213Z,8.94
2022-10-06T05:31:27.282Z,9.00
2022-10-06T05:33:56.873Z,9.05
2022-10-06T05:36:28.200Z,9.16
2022-10-06T05:38:56.446Z,9.37
2022-10-06T05:41:25.827Z,9.37
2022-10-06T05:43:55.969Z,9.33
2022-10-06T05:46:28.189Z,9.32
2022-10-06T05:48:58.819Z,9.37
2022-10-06T05:51:31.019Z,9.39
2022-10-06T05:53:59.631Z,9.45
2022-10-06T05:56:29.537Z,9.48
2022-10-06T05:59:00.386Z,9.46
2022-10-06T06:01:30.359Z,9.41
2022-10-06T06:04:03.742Z,9.41
2022-10-06T06:06:33.197Z,9.59
2022-10-06T06:09:03.717Z,9.56
2022-10-06T06:11:32.781Z,9.57
2022-10-06T06:14:03.590Z,9.66
2022-10-06T06:16:31.361Z,9.74
2022-10-06T06:19:00.050Z,9.79
2022-10-06T06:21:29.751Z,9.85
2022-10-06T06:23:58.152Z,9.92
2022-10-06T06:26:28.039Z,9.96
2022-10-06T06:29:02.885Z,10.10
2022-10-06T06:31:35.037Z,10.30
2022-10-06T06:34:06.811Z,10.42
2022-10-06T06:36:41.005Z,10.44
2022-10-06T06:39:11.398Z,10.51
2022-10-06T06:41:41.052Z,10.57
2022-10-06T06:44:12.550Z,10.76
2022-10-06T06:46:44.896Z,10.73
2022-10-06T06:49:13.560Z,10.84
2022-10-06T06:51:43.353Z,10.90
2022-10-06T06:54:13.003Z,11.11
2022-10-06T06:56:41.409Z,11.19
2022-10-06T06:59:11.963Z,11.29
2022-10-06T07:01:45.880Z,11.44
2022-10-06T07:04:15.924Z,11.46
2022-10-06T07:06:57.280Z,11.55
2022-10-06T07:09:26.752Z,11.66
2022-10-06T07:11:55.545Z,11.79
2022-10-06T07:14:24.543Z,12.03
2022-10-06T07:17:11.922Z,12.03
2022-10-06T07:19:57.847Z,12.11
2022-10-06T07:22:47.434Z,12.26
2022-10-06T07:25:25.903Z,12.37
2022-10-06T07:27:55.302Z,12.38
2022-10-06T07:30:28.383Z,12.49
2022-10-06T07:32:57.930Z,12.58
2022-10-06T07:35:26.713Z,12.74
2022-10-06T07:37:54.992Z,12.87
2022-10-06T07:40:23.114Z,12.95
2022-10-06T07:42:52.220Z,13.32
2022-10-06T07:45:42.755Z,13.37
2022-10-06T07:48:15.034Z,13.43
2022-10-06T07:50:44.097Z,13.59
2022-10-06T07:53:12.363Z,13.77
2022-10-06T07:55:41.901Z,13.85
2022-10-06T07:58:14.363Z,13.93
2022-10-06T08:00:43.081Z,14.06
2022-10-06T08:03:18.210Z,14.07
2022-10-06T08:05:46.323Z,14.32
2022-10-06T08:08:14.890Z,14.27
2022-10-06T08:10:43.454Z,14.35
2022-10-06T08:13:11.474Z,14.59
2022-10-06T08:15:39.646Z,14.72
2022-10-06T08:18:21.391Z,14.75
2022-10-06T08:20:56.457Z,15.04
2022-10-06T08:23:24.484Z,15.14
2022-10-06T08:25:54.796Z,15.23
2022-10-06T08:28:24.606Z,15.38
2022-10-06T08:30:53.182Z,15.42
2022-10-06T08:33:21.730Z,15.47
2022-10-06T08:35:49.948Z,15.61
2022-10-06T08:38:20.008Z,15.85
2022-10-06T08:40:48.940Z,15.86
2022-10-06T08:43:25.015Z,15.84
2022-10-06T08:46:00.543Z,15.80
2022-10-06T08:48:38.704Z,15.80
2022-10-06T08:51:18.803Z,15.83
2022-10-06T08:54:00.116Z,15.91
2022-10-06T08:56:33.021Z,16.03
2022-10-06T08:59:04.970Z,16.23
2022-10-06T09:01:42.780Z,16.43
2022-10-06T09:04:15.176Z,16.49
2022-10-06T09:06:52.200Z,16.62
2022-10-06T09:09:44.826Z,16.57
2022-10-06T09:12:20.823Z,16.71
2022-10-06T09:14:52.674Z,16.93
2022-10-06T09:17:27.326Z,17.04
2022-10-06T09:19:59.633Z,17.03
2022-10-06T09:22:31.865Z,17.09
2022-10-06T09:25:15.865Z,17.29
2022-10-06T09:27:48.023Z,17.31
2022-10-06T09:30:16.443Z,17.39
2022-10-06T09:32:48.755Z,17.55
2022-10-06T09:35:20.767Z,17.64
2022-10-06T09:37:57.883Z,17.73
2022-10-06T09:40:37.932Z,17.86
2022-10-06T09:43:18.301Z,18.01
2022-10-06T09:45:46.549Z,18.04
2022-10-06T09:48:24.814Z,18.14
2022-10-06T09:51:09.833Z,18.01
2022-10-06T09:53:39.645Z,18.06
2022-10-06T09:56:18.984Z,18.23
2022-10-06T09:58:58.773Z,18.17
2022-10-06T10:01:29.529Z,18.06
2022-10-06T10:04:21.075Z,18.25
2022-10-06T10:06:49.288Z,18.39
2022-10-06T10:09:27.083Z,18.43
2022-10-06T10:12:28.168Z,18.46
2022-10-06T10:14:59.315Z,18.59
2022-10-06T10:17:41.632Z,18.50
2022-10-06T10:20:28.309Z,18.62
2022-10-06T10:22:59.857Z,18.79
2022-10-06T10:25:46.636Z,18.91
2022-10-06T10:28:30.475Z,19.08
2022-10-06T10:31:06.408Z,19.09
2022-10-06T10:33:49.727Z,19.14
2022-10-06T10:36:41.397Z,19.16
2022-10-06T10:39:19.608Z,19.20
2022-10-06T10:41:52.046Z,19.38
2022-10-06T10:44:31.664Z,19.45
2022-10-06T10:47:13.033Z,19.36
2022-10-06T10:50:02.597Z,19.47
2022-10-06T10:52:38.198Z,19.53
2022-10-06T10:55:19.800Z,19.61
2022-10-06T10:57:50.279Z,19.53
2022-10-06T11:00:23.154Z,19.66
2022-10-06T11:02:55.200Z,19.67
2022-10-06T11:05:45.703Z,19.83
2022-10-06T11:08:23.136Z,19.93
2022-10-06T11:10:55.238Z,19.91
2022-10-06T11:13:30.139Z,19.86
2022-10-06T11:16:14.651Z,19.82
2022-10-06T11:18:56.229Z,19.92
2022-10-06T11:21:28.702Z,19.88
2022-10-06T11:24:03.925Z,19.92
2022-10-06T11:26:50.572Z,19.92
2022-10-06T11:29:30.240Z,19.96
2022-10-06T11:32:08.998Z,20.17
2022-10-06T11:34:37.390Z,20.35
2022-10-06T11:37:17.472Z,20.36
2022-10-06T11:39:53.945Z,20.25
2022-10-06T11:45:03.959Z,20.53
2022-10-06T11:47:44.426Z,20.46
2022-10-06T11:50:34.350Z,20.58
2022-10-06T11:53:02.563Z,20.75
2022-10-06T11:55:31.436Z,20.80
2022-10-06T12:01:02.159Z,20.66
2022-10-06T12:03:49.381Z,20.60
2022-10-06T12:06:59.404Z,20.62
2022-10-06T12:09:52.723Z,20.71
2022-10-06T12:13:06.277Z,20.85
2022-10-06T12:19:19.287Z,20.52
2022-10-06T12:22:02.059Z,20.79
2022-10-06T12:24:44.911Z,20.79
2022-10-06T12:27:43.281Z,20.80
2022-10-06T12:30:24.788Z,20.67
2022-10-06T12:32:58.293Z,20.68
2022-10-06T12:35:35.183Z,20.70
2022-10-06T12:38:06.268Z,20.86
2022-10-06T12:40:52.536Z,20.82
2022-10-06T12:43:36.200Z,20.88
2022-10-06T12:46:08.218Z,20.99
2022-10-06T12:48:42.025Z,21.01
2022-10-06T12:51:25.780Z,21.09
2022-10-06T12:54:04.385Z,21.16
2022-10-06T12:56:34.613Z,21.15
2022-10-06T12:59:21.398Z,21.21
2022-10-06T13:01:51.982Z,21.20
2022-10-06T13:04:39.379Z,21.19
2022-10-06T13:07:17.125Z,21.03
2022-10-06T13:09:45.677Z,21.05
2022-10-06T13:12:26.435Z,20.83
2022-10-06T13:15:15.713Z,20.98
2022-10-06T13:17:47.418Z,20.96
2022-10-06T13:20:27.154Z,20.98
2022-10-06T13:23:08.685Z,21.01
2022-10-06T13:25:45.837Z,21.11
2022-10-06T13:28:22.903Z,21.17
2022-10-06T13:30:53.332Z,21.20
2022-10-06T13:33:22.386Z,21.26
2022-10-06T13:35:54.122Z,21.23
2022-10-06T13:38:23.612Z,21.18
2022-10-06T13:41:05.935Z,21.21
2022-10-06T13:43:39.748Z,21.23
2022-10-06T13:46:10.951Z,21.25
2022-10-06T13:48:46.387Z,21.23
2022-10-06T13:51:19.984Z,21.18
2022-10-06T13:53:50.433Z,21.14
2022-10-06T13:56:34.817Z,21.10
2022-10-06T13:59:30.105Z,21.10
2022-10-06T14:01:59.750Z,21.06
2022-10-06T14:04:27.850Z,21.04
2022-10-06T14:06:59.973Z,21.02
2022-10-06T14:09:32.856Z,21.00
2022-10-06T14:12:06.894Z,20.97
2022-10-06T14:14:35.220Z,20.92
2022-10-06T14:17:03.870Z,20.91
2022-10-06T14:19:35.631Z,20.86
2022-10-06T14:22:05.683Z,20.85
2022-10-06T14:24:37.628Z,20.84
2022-10-06T14:27:07.373Z,20.79
2022-10-06T14:29:38.188Z,20.80
2022-10-06T14:32:16.387Z,20.78
2022-10-06T14:34:44.965Z,20.77
2022-10-06T14:37:15.303Z,20.71
2022-10-06T14:39:46.213Z,20.66
2022-10-06T14:42:15.641Z,20.61
2022-10-06T14:44:44.859Z,20.56
2022-10-06T14:47:12.901Z,20.52
2022-10-06T14:49:41.045Z,20.48
2022-10-06T14:52:10.687Z,20.45
2022-10-06T14:54:38.849Z,20.42
2022-10-06T14:57:09.290Z,20.36
2022-10-06T14:59:37.260Z,20.30
2022-10-06T15:02:05.692Z,20.20
2022-10-06T15:04:33.681Z,20.13
2022-10-06T15:07:18.980Z,20.12
2022-10-06T15:09:46.983Z,20.05
2022-10-06T15:12:16.347Z,19.96
2022-10-06T15:14:44.715Z,19.92
2022-10-06T15:17:12.772Z,19.81
2022-10-06T15:19:40.991Z,19.73
2022-10-06T15:22:10.353Z,19.63
2022-10-06T15:24:38.445Z,19.54
2022-10-06T15:27:25.270Z,19.45
2022-10-06T15:29:56.148Z,19.38
2022-10-06T15:32:24.164Z,19.31
2022-10-06T15:34:53.426Z,19.25
2022-10-06T15:37:21.537Z,19.19
2022-10-06T15:39:51.340Z,19.12
2022-10-06T15:42:24.082Z,19.05
2022-10-06T15:44:52.690Z,18.95
2022-10-06T15:47:22.167Z,18.87
2022-10-06T15:49:50.660Z,18.78
2022-10-06T15:52:19.025Z,18.69
2022-10-06T15:54:49.957Z,18.59
2022-10-06T15:57:21.283Z,18.50
2022-10-06T15:59:50.450Z,18.42
2022-10-06T16:02:20.429Z,18.36
2022-10-06T16:05:17.658Z,18.29
2022-10-06T16:07:45.668Z,18.22
2022-10-06T16:10:13.926Z,18.14
2022-10-06T16:12:42.033Z,18.07
2022-10-06T16:15:10.955Z,18.00
2022-10-06T16:17:39.202Z,17.93
2022-10-06T16:20:11.631Z,17.89
2022-10-06T16:22:40.019Z,17.83
2022-10-06T16:25:08.864Z,17.79
2022-10-06T16:27:36.833Z,17.75
2022-10-06T16:30:05.568Z,17.70
2022-10-06T16:32:33.663Z,17.65
2022-10-06T16:35:01.668Z,17.57
2022-10-06T16:37:31.058Z,17.50
2022-10-06T16:39:59.018Z,17.43
2022-10-06T16:42:27.259Z,17.42
2022-10-06T16:44:55.820Z,17.34
2022-10-06T16:47:23.894Z,17.24
2022-10-06T16:49:51.879Z,17.15
2022-10-06T16:52:19.943Z,17.08
2022-10-06T16:54:49.270Z,17.03
2022-10-06T16:57:17.541Z,16.96
2022-10-06T16:59:46.995Z,16.89
2022-10-06T17:02:15.287Z,16.82
2022-10-06T17:04:43.494Z,16.75
2022-10-06T17:07:11.636Z,16.67
2022-10-06T17:09:51.099Z,16.62
2022-10-06T17:12:29.560Z,16.58
2022-10-06T17:14:57.704Z,16.55
2022-10-06T17:17:25.680Z,16.58
2022-10-06T17:19:55.234Z,16.53
2022-10-06T17:22:23.212Z,16.43
2022-10-06T17:24:51.216Z,16.34
2022-10-06T17:27:19.420Z,16.26
2022-10-06T17:29:49.496Z,16.21
2022-10-06T17:32:18.175Z,16.15
2022-10-06T17:34:47.975Z,16.11
2022-10-06T17:37:17.608Z,16.04
2022-10-06T17:39:47.201Z,16.00
2022-10-06T17:42:15.291Z,15.94
2022-10-06T17:44:43.313Z,15.92
2022-10-06T17:47:12.826Z,15.87
2022-10-06T17:49:40.989Z,15.83
2022-10-06T17:52:08.975Z,15.79
2022-10-06T17:54:37.409Z,15.74
2022-10-06T17:57:05.658Z,15.70
2022-10-06T17:59:33.944Z,15.65
2022-10-06T18:02:07.302Z,15.64
2022-10-06T18:04:37.425Z,15.62
2022-10-06T18:07:06.278Z,15.72
2022-10-06T18:09:34.311Z,15.67
2022-10-06T18:12:02.712Z,15.61
2022-10-06T18:14:33.808Z,15.57
2022-10-06T18:17:04.338Z,15.51
2022-10-06T18:19:34.337Z,15.48
2022-10-06T18:22:10.238Z,15.42
2022-10-06T18:24:39.353Z,15.41
2022-10-06T18:27:08.299Z,15.34
2022-10-06T18:29:38.252Z,15.29
2022-10-06T18:33:06.393Z,15.33
2022-10-06T18:37:46.664Z,15.29
2022-10-06T18:40:15.612Z,15.20
2022-10-06T18:42:43.887Z,15.21
2022-10-06T18:45:33.192Z,15.30
2022-10-06T18:48:21.319Z,15.20
2022-10-06T18:51:02.828Z,15.22
2022-10-06T18:53:38.761Z,15.12
2022-10-06T18:56:07.502Z,14.99
2022-10-06T18:58:40.064Z,14.93
2022-10-06T19:01:10.276Z,14.86
2022-10-06T19:03:38.613Z,14.80
2022-10-06T19:06:07.113Z,14.73
2022-10-06T19:08:37.117Z,14.71
2022-10-06T19:11:31.838Z,14.84
2022-10-06T19:14:03.128Z,14.90
2022-10-06T19:16:31.464Z,14.91
2022-10-06T19:19:11.319Z,14.76
2022-10-06T19:21:40.915Z,14.74
2022-10-06T19:24:13.766Z,14.75
2022-10-06T19:26:45.943Z,14.72
2022-10-06T19:29:15.385Z,14.76
2022-10-06T19:31:48.093Z,14.68
2022-10-06T19:34:18.370Z,14.65
2022-10-06T19:36:50.070Z,14.53
2022-10-06T19:39:26.589Z,14.46
2022-10-06T19:42:15.230Z,14.34
2022-10-06T19:44:43.766Z,14.16
2022-10-06T19:47:14.898Z,14.15
2022-10-06T19:49:42.963Z,14.03
2022-10-06T19:52:13.665Z,14.06
2022-10-06T19:54:43.398Z,13.91
2022-10-06T19:57:12.341Z,13.90
2022-10-06T19:59:40.960Z,13.77
2022-10-06T20:02:10.912Z,13.68
2022-10-06T20:04:40.621Z,13.68
2022-10-06T20:07:10.769Z,13.69
2022-10-06T20:09:39.239Z,13.73
2022-10-06T20:12:08.939Z,13.67
2022-10-06T20:14:37.550Z,13.59
2022-10-06T20:17:06.038Z,13.53
2022-10-06T20:19:37.539Z,13.47
2022-10-06T20:22:07.303Z,13.43
2022-10-06T20:24:35.994Z,13.38
2022-10-06T20:27:04.307Z,13.33
2022-10-06T20:29:34.922Z,13.29
2022-10-06T20:32:05.662Z,13.29
2022-10-06T20:34:34.576Z,13.24
2022-10-06T20:37:04.701Z,13.21
2022-10-06T20:39:51.761Z,13.13
2022-10-06T20:42:21.278Z,13.07
2022-10-06T20:44:50.962Z,12.99
2022-10-06T20:47:19.067Z,12.92
2022-10-06T20:49:47.127Z,12.87
2022-10-06T20:52:15.208Z,12.81
2022-10-06T20:54:44.181Z,12.77
2022-10-06T20:57:13.655Z,12.72
2022-10-06T20:59:41.923Z,12.68
2022-10-06T21:02:12.706Z,12.63
2022-10-06T21:04:43.639Z,12.58
2022-10-06T21:07:12.004Z,12.56
2022-10-06T21:09:40.186Z,12.53
2022-10-06T21:12:08.599Z,12.50
2022-10-06T21:14:38.370Z,12.48
2022-10-06T21:17:06.751Z,12.48
2022-10-06T21:19:38.415Z,12.44
2022-10-06T21:22:06.954Z,12.41
2022-10-06T21:24:35.036Z,12.40
2022-10-06T21:27:03.309Z,12.38
2022-10-06T21:29:31.393Z,12.36
2022-10-06T21:31:59.870Z,12.35
2022-10-06T21:34:27.983Z,12.34
2022-10-06T21:36:58.253Z,12.32
2022-10-06T21:39:26.348Z,12.28
2022-10-06T21:41:54.794Z,12.26
2022-10-06T21:44:22.796Z,12.24
2022-10-06T21:46:51.964Z,12.19
2022-10-06T21:49:21.476Z,12.19
2022-10-06T21:51:51.078Z,12.17
2022-10-06T21:54:20.798Z,12.15
2022-10-06T21:56:49.135Z,12.12
2022-10-06T21:59:17.194Z,12.12
2022-10-06T22:01:46.701Z,12.10
2022-10-06T22:04:15.677Z,12.07
2022-10-06T22:06:44.814Z,12.03
2022-10-06T22:09:15.898Z,12.02
2022-10-06T22:11:45.263Z,11.99
2022-10-06T22:14:15.027Z,11.94
2022-10-06T22:16:43.187Z,11.87
2022-10-06T22:19:13.586Z,11.86
2022-10-06T22:21:43.494Z,11.84
2022-10-06T22:24:13.924Z,11.78
2022-10-06T22:26:43.801Z,11.71
2022-10-06T22:29:15.911Z,11.66
2022-10-06T22:31:46.726Z,11.64
2022-10-06T22:34:16.907Z,11.59
2022-10-06T22:36:44.859Z,11.57
2022-10-06T22:39:13.082Z,11.51
2022-10-06T22:41:41.032Z,11.46
2022-10-06T22:44:09.215Z,11.42
2022-10-06T22:46:39.196Z,11.38
2022-10-06T22:49:07.604Z,11.36
2022-10-06T22:51:36.097Z,11.34
2022-10-06T22:54:04.375Z,11.30
2022-10-06T22:56:34.316Z,11.28
2022-10-06T22:59:02.694Z,11.27
2022-10-06T23:01:31.501Z,11.29
2022-10-06T23:04:00.956Z,11.28
2022-10-06T23:06:31.271Z,11.24
2022-10-06T23:08:59.896Z,11.27
2022-10-06T23:11:28.541Z,11.27
2022-10-06T23:13:56.519Z,11.23
2022-10-06T23:16:24.633Z,11.25
2022-10-06T23:18:52.775Z,11.24
2022-10-06T23:21:27.444Z,11.22
2022-10-06T23:23:57.647Z,11.22
2022-10-06T23:26:25.990Z,11.18
2022-10-06T23:28:55.999Z,11.14
2022-10-06T23:31:24.753Z,11.10
2022-10-06T23:33:52.895Z,11.06
2022-10-06T23:36:22.245Z,11.04
2022-10-06T23:38:50.194Z,11.02
2022-10-06T23:41:18.361Z,11.00
2022-10-06T23:43:46.380Z,10.95
2022-10-06T23:46:14.929Z,10.92
2022-10-06T23:48:43.425Z,10.90
2022-10-06T23:51:13.571Z,10.85
2022-10-06T23:53:43.578Z,10.89
2022-10-06T23:56:12.030Z,10.92
2022-10-06T23:58:41.687Z,11.04
